sensor_id;sensor_type;location;lat;lon;timestamp;P1;durP1;ratioP1;P2;durP2;ratioP2
59930;SDS011;45790;51.538;6.736;2022-07-10T00:00:01;2.55;;;0.90;;
59930;SDS011;45790;51.538;6.736;2022-07-10T00:02:27;3.22;;;0.77;;
59930;SDS011;45790;51.538;6.736;2022-07-10T00:04:53;1.98;;;0.50;;
59930;SDS011;45790;51.538;6.736;2022-07-10T00:07:18;3.53;;;0.93;;
59930;SDS011;45790;51.538;6.736;2022-07-10T00:09:43;1.95;;;0.70;;
59930;SDS011;45790;51.538;6.736;2022-07-10T00:12:09;3.38;;;0.80;;
59930;SDS011;45790;51.538;6.736;2022-07-10T00:14:37;2.83;;;0.70;;
59930;SDS011;45790;51.538;6.736;2022-07-10T00:17:02;3.92;;;0.85;;
59930;SDS011;45790;51.538;6.736;2022-07-10T00:19:28;3.28;;;0.80;;
59930;SDS011;45790;51.538;6.736;2022-07-10T00:21:53;1.90;;;0.77;;
59930;SDS011;45790;51.538;6.736;2022-07-10T00:24:18;1.70;;;0.68;;
59930;SDS011;45790;51.538;6.736;2022-07-10T00:26:43;5.10;;;1.13;;
59930;SDS011;45790;51.538;6.736;2022-07-10T00:29:09;1.92;;;0.68;;
59930;SDS011;45790;51.538;6.736;2022-07-10T00:31:34;1.92;;;0.50;;
59930;SDS011;45790;51.538;6.736;2022-07-10T00:33:59;1.48;;;0.60;;
59930;SDS011;45790;51.538;6.736;2022-07-10T00:36:25;3.03;;;0.85;;
59930;SDS011;45790;51.538;6.736;2022-07-10T00:38:50;3.35;;;0.80;;
59930;SDS011;45790;51.538;6.736;2022-07-10T00:41:15;3.83;;;0.70;;
59930;SDS011;45790;51.538;6.736;2022-07-10T00:43:50;3.25;;;0.65;;
59930;SDS011;45790;51.538;6.736;2022-07-10T00:46:20;2.20;;;0.70;;
59930;SDS011;45790;51.538;6.736;2022-07-10T00:48:45;2.53;;;0.75;;
59930;SDS011;45790;51.538;6.736;2022-07-10T00:51:12;2.53;;;0.68;;
59930;SDS011;45790;51.538;6.736;2022-07-10T00:53:37;3.72;;;0.73;;
59930;SDS011;45790;51.538;6.736;2022-07-10T00:56:03;3.03;;;0.75;;
59930;SDS011;45790;51.538;6.736;2022-07-10T00:58:29;3.28;;;0.85;;
59930;SDS011;45790;51.538;6.736;2022-07-10T01:00:55;2.33;;;0.88;;
59930;SDS011;45790;51.538;6.736;2022-07-10T01:03:20;4.07;;;0.88;;
59930;SDS011;45790;51.538;6.736;2022-07-10T01:05:46;2.92;;;0.90;;
59930;SDS011;45790;51.538;6.736;2022-07-10T01:08:11;2.60;;;0.85;;
59930;SDS011;45790;51.538;6.736;2022-07-10T01:10:36;2.63;;;0.70;;
59930;SDS011;45790;51.538;6.736;2022-07-10T01:13:02;2.42;;;0.68;;
59930;SDS011;45790;51.538;6.736;2022-07-10T01:15:28;2.20;;;0.57;;
59930;SDS011;45790;51.538;6.736;2022-07-10T01:17:53;2.35;;;0.82;;
59930;SDS011;45790;51.538;6.736;2022-07-10T01:20:20;2.42;;;0.70;;
59930;SDS011;45790;51.538;6.736;2022-07-10T01:22:45;3.85;;;0.77;;
59930;SDS011;45790;51.538;6.736;2022-07-10T01:25:11;3.58;;;0.75;;
59930;SDS011;45790;51.538;6.736;2022-07-10T01:27:36;3.20;;;0.70;;
59930;SDS011;45790;51.538;6.736;2022-07-10T01:30:02;2.50;;;0.65;;
59930;SDS011;45790;51.538;6.736;2022-07-10T01:32:35;2.60;;;0.75;;
59930;SDS011;45790;51.538;6.736;2022-07-10T01:35:01;2.92;;;0.80;;
59930;SDS011;45790;51.538;6.736;2022-07-10T01:37:26;3.08;;;0.73;;
59930;SDS011;45790;51.538;6.736;2022-07-10T01:39:52;2.92;;;0.85;;
59930;SDS011;45790;51.538;6.736;2022-07-10T01:42:17;3.67;;;0.77;;
59930;SDS011;45790;51.538;6.736;2022-07-10T01:44:42;4.28;;;0.90;;
59930;SDS011;45790;51.538;6.736;2022-07-10T01:47:08;3.30;;;1.00;;
59930;SDS011;45790;51.538;6.736;2022-07-10T01:49:34;1.52;;;0.60;;
59930;SDS011;45790;51.538;6.736;2022-07-10T01:51:59;3.50;;;0.52;;
59930;SDS011;45790;51.538;6.736;2022-07-10T01:54:24;2.03;;;0.68;;
59930;SDS011;45790;51.538;6.736;2022-07-10T01:56:50;2.50;;;0.73;;
59930;SDS011;45790;51.538;6.736;2022-07-10T01:59:15;1.98;;;0.60;;
59930;SDS011;45790;51.538;6.736;2022-07-10T02:01:40;2.95;;;0.70;;
59930;SDS011;45790;51.538;6.736;2022-07-10T02:04:05;4.00;;;0.95;;
59930;SDS011;45790;51.538;6.736;2022-07-10T02:06:49;3.30;;;0.90;;
59930;SDS011;45790;51.538;6.736;2022-07-10T02:09:15;2.85;;;0.85;;
59930;SDS011;45790;51.538;6.736;2022-07-10T02:11:40;3.33;;;0.75;;
59930;SDS011;45790;51.538;6.736;2022-07-10T02:14:05;2.40;;;0.80;;
59930;SDS011;45790;51.538;6.736;2022-07-10T02:16:33;2.78;;;0.70;;
59930;SDS011;45790;51.538;6.736;2022-07-10T02:18:58;2.95;;;0.70;;
59930;SDS011;45790;51.538;6.736;2022-07-10T02:21:24;2.95;;;0.80;;
59930;SDS011;45790;51.538;6.736;2022-07-10T02:23:49;1.67;;;0.60;;
59930;SDS011;45790;51.538;6.736;2022-07-10T02:26:14;2.35;;;0.80;;
59930;SDS011;45790;51.538;6.736;2022-07-10T02:28:40;2.95;;;0.80;;
59930;SDS011;45790;51.538;6.736;2022-07-10T02:31:05;2.97;;;0.85;;
59930;SDS011;45790;51.538;6.736;2022-07-10T02:33:30;2.58;;;0.73;;
59930;SDS011;45790;51.538;6.736;2022-07-10T02:35:56;2.60;;;0.50;;
59930;SDS011;45790;51.538;6.736;2022-07-10T02:38:21;1.55;;;0.63;;
59930;SDS011;45790;51.538;6.736;2022-07-10T02:40:46;2.10;;;0.70;;
59930;SDS011;45790;51.538;6.736;2022-07-10T02:43:12;2.72;;;0.77;;
59930;SDS011;45790;51.538;6.736;2022-07-10T02:45:37;2.90;;;0.82;;
59930;SDS011;45790;51.538;6.736;2022-07-10T02:48:03;1.55;;;0.50;;
59930;SDS011;45790;51.538;6.736;2022-07-10T02:50:29;2.85;;;0.90;;
59930;SDS011;45790;51.538;6.736;2022-07-10T02:52:54;2.45;;;0.82;;
59930;SDS011;45790;51.538;6.736;2022-07-10T02:55:19;2.55;;;0.70;;
59930;SDS011;45790;51.538;6.736;2022-07-10T02:57:45;2.15;;;0.80;;
59930;SDS011;45790;51.538;6.736;2022-07-10T03:00:10;2.47;;;0.80;;
59930;SDS011;45790;51.538;6.736;2022-07-10T03:02:36;2.58;;;0.80;;
59930;SDS011;45790;51.538;6.736;2022-07-10T03:05:01;3.58;;;0.88;;
59930;SDS011;45790;51.538;6.736;2022-07-10T03:07:27;2.28;;;0.80;;
59930;SDS011;45790;51.538;6.736;2022-07-10T03:09:52;2.83;;;0.70;;
59930;SDS011;45790;51.538;6.736;2022-07-10T03:12:18;2.08;;;0.70;;
59930;SDS011;45790;51.538;6.736;2022-07-10T03:14:43;1.95;;;0.70;;
59930;SDS011;45790;51.538;6.736;2022-07-10T03:17:09;1.60;;;0.68;;
59930;SDS011;45790;51.538;6.736;2022-07-10T03:19:34;2.08;;;0.80;;
59930;SDS011;45790;51.538;6.736;2022-07-10T03:21:59;1.90;;;0.88;;
59930;SDS011;45790;51.538;6.736;2022-07-10T03:24:25;3.90;;;0.95;;
59930;SDS011;45790;51.538;6.736;2022-07-10T03:26:50;2.00;;;0.80;;
59930;SDS011;45790;51.538;6.736;2022-07-10T03:29:15;2.85;;;0.80;;
59930;SDS011;45790;51.538;6.736;2022-07-10T03:31:41;2.20;;;0.75;;
59930;SDS011;45790;51.538;6.736;2022-07-10T03:34:06;2.85;;;1.08;;
59930;SDS011;45790;51.538;6.736;2022-07-10T03:36:31;1.65;;;0.80;;
59930;SDS011;45790;51.538;6.736;2022-07-10T03:38:57;2.88;;;1.00;;
59930;SDS011;45790;51.538;6.736;2022-07-10T03:41:22;2.72;;;0.70;;
59930;SDS011;45790;51.538;6.736;2022-07-10T03:43:47;3.13;;;0.80;;
59930;SDS011;45790;51.538;6.736;2022-07-10T03:46:13;1.98;;;0.85;;
59930;SDS011;45790;51.538;6.736;2022-07-10T03:48:38;1.92;;;0.70;;
59930;SDS011;45790;51.538;6.736;2022-07-10T03:51:03;3.13;;;0.65;;
59930;SDS011;45790;51.538;6.736;2022-07-10T03:53:29;2.25;;;0.85;;
59930;SDS011;45790;51.538;6.736;2022-07-10T03:55:54;3.38;;;0.85;;
59930;SDS011;45790;51.538;6.736;2022-07-10T03:58:19;2.90;;;0.98;;
59930;SDS011;45790;51.538;6.736;2022-07-10T04:00:45;2.60;;;0.85;;
59930;SDS011;45790;51.538;6.736;2022-07-10T04:03:10;1.92;;;0.75;;
59930;SDS011;45790;51.538;6.736;2022-07-10T04:05:37;3.85;;;0.90;;
59930;SDS011;45790;51.538;6.736;2022-07-10T04:08:03;3.22;;;0.80;;
59930;SDS011;45790;51.538;6.736;2022-07-10T04:10:29;1.52;;;0.90;;
59930;SDS011;45790;51.538;6.736;2022-07-10T04:12:56;1.90;;;0.70;;
59930;SDS011;45790;51.538;6.736;2022-07-10T04:15:21;1.50;;;0.73;;
59930;SDS011;45790;51.538;6.736;2022-07-10T04:17:50;3.65;;;1.00;;
59930;SDS011;45790;51.538;6.736;2022-07-10T04:20:18;2.38;;;0.90;;
59930;SDS011;45790;51.538;6.736;2022-07-10T04:22:44;2.42;;;0.73;;
59930;SDS011;45790;51.538;6.736;2022-07-10T04:25:10;3.05;;;0.80;;
59930;SDS011;45790;51.538;6.736;2022-07-10T04:27:36;2.35;;;0.70;;
59930;SDS011;45790;51.538;6.736;2022-07-10T04:30:01;2.47;;;0.90;;
59930;SDS011;45790;51.538;6.736;2022-07-10T04:32:27;2.97;;;0.93;;
59930;SDS011;45790;51.538;6.736;2022-07-10T04:34:53;2.90;;;1.02;;
59930;SDS011;45790;51.538;6.736;2022-07-10T04:37:19;3.33;;;1.05;;
59930;SDS011;45790;51.538;6.736;2022-07-10T04:39:44;2.40;;;1.05;;
59930;SDS011;45790;51.538;6.736;2022-07-10T04:42:10;3.33;;;1.20;;
59930;SDS011;45790;51.538;6.736;2022-07-10T04:44:35;4.25;;;1.10;;
59930;SDS011;45790;51.538;6.736;2022-07-10T04:47:01;3.42;;;1.13;;
59930;SDS011;45790;51.538;6.736;2022-07-10T04:49:27;2.50;;;1.02;;
59930;SDS011;45790;51.538;6.736;2022-07-10T04:51:53;2.38;;;0.80;;
59930;SDS011;45790;51.538;6.736;2022-07-10T04:54:19;3.35;;;1.05;;
59930;SDS011;45790;51.538;6.736;2022-07-10T04:56:44;2.97;;;0.90;;
59930;SDS011;45790;51.538;6.736;2022-07-10T04:59:12;2.65;;;1.10;;
59930;SDS011;45790;51.538;6.736;2022-07-10T05:01:37;2.22;;;0.82;;
59930;SDS011;45790;51.538;6.736;2022-07-10T05:04:03;3.30;;;0.80;;
59930;SDS011;45790;51.538;6.736;2022-07-10T05:06:29;2.95;;;1.00;;
59930;SDS011;45790;51.538;6.736;2022-07-10T05:08:54;4.20;;;1.00;;
59930;SDS011;45790;51.538;6.736;2022-07-10T05:11:20;3.90;;;1.20;;
59930;SDS011;45790;51.538;6.736;2022-07-10T05:13:46;4.25;;;1.10;;
59930;SDS011;45790;51.538;6.736;2022-07-10T05:16:13;3.55;;;1.00;;
59930;SDS011;45790;51.538;6.736;2022-07-10T05:18:39;4.32;;;1.08;;
59930;SDS011;45790;51.538;6.736;2022-07-10T05:21:04;4.45;;;1.00;;
59930;SDS011;45790;51.538;6.736;2022-07-10T05:23:30;2.47;;;0.93;;
59930;SDS011;45790;51.538;6.736;2022-07-10T05:25:55;4.68;;;1.20;;
59930;SDS011;45790;51.538;6.736;2022-07-10T05:28:21;2.15;;;1.05;;
59930;SDS011;45790;51.538;6.736;2022-07-10T05:30:46;4.75;;;1.20;;
59930;SDS011;45790;51.538;6.736;2022-07-10T05:33:11;3.58;;;1.05;;
59930;SDS011;45790;51.538;6.736;2022-07-10T05:35:37;3.00;;;0.80;;
59930;SDS011;45790;51.538;6.736;2022-07-10T05:38:02;4.03;;;1.20;;
59930;SDS011;45790;51.538;6.736;2022-07-10T05:40:28;3.38;;;1.08;;
59930;SDS011;45790;51.538;6.736;2022-07-10T05:42:53;4.00;;;1.05;;
59930;SDS011;45790;51.538;6.736;2022-07-10T05:45:18;2.63;;;0.90;;
59930;SDS011;45790;51.538;6.736;2022-07-10T05:47:44;3.38;;;1.00;;
59930;SDS011;45790;51.538;6.736;2022-07-10T05:50:09;5.68;;;1.25;;
59930;SDS011;45790;51.538;6.736;2022-07-10T05:52:36;1.58;;;0.80;;
59930;SDS011;45790;51.538;6.736;2022-07-10T05:55:02;3.95;;;1.02;;
59930;SDS011;45790;51.538;6.736;2022-07-10T05:57:29;1.80;;;0.80;;
59930;SDS011;45790;51.538;6.736;2022-07-10T05:59:55;3.15;;;0.80;;
59930;SDS011;45790;51.538;6.736;2022-07-10T06:02:20;5.13;;;1.00;;
59930;SDS011;45790;51.538;6.736;2022-07-10T06:04:45;2.97;;;0.88;;
59930;SDS011;45790;51.538;6.736;2022-07-10T06:07:11;1.40;;;0.70;;
59930;SDS011;45790;51.538;6.736;2022-07-10T06:09:37;1.67;;;0.80;;
59930;SDS011;45790;51.538;6.736;2022-07-10T06:12:02;3.60;;;0.80;;
59930;SDS011;45790;51.538;6.736;2022-07-10T06:14:27;2.70;;;0.90;;
59930;SDS011;45790;51.538;6.736;2022-07-10T06:16:53;2.17;;;0.93;;
59930;SDS011;45790;51.538;6.736;2022-07-10T06:19:18;3.28;;;0.90;;
59930;SDS011;45790;51.538;6.736;2022-07-10T06:21:44;3.13;;;1.00;;
59930;SDS011;45790;51.538;6.736;2022-07-10T06:24:09;2.92;;;0.93;;
59930;SDS011;45790;51.538;6.736;2022-07-10T06:26:35;3.42;;;0.90;;
59930;SDS011;45790;51.538;6.736;2022-07-10T06:29:00;2.45;;;1.05;;
59930;SDS011;45790;51.538;6.736;2022-07-10T06:31:25;2.40;;;0.98;;
59930;SDS011;45790;51.538;6.736;2022-07-10T06:33:51;3.05;;;1.00;;
59930;SDS011;45790;51.538;6.736;2022-07-10T06:36:16;3.58;;;1.10;;
59930;SDS011;45790;51.538;6.736;2022-07-10T06:38:41;3.60;;;1.02;;
59930;SDS011;45790;51.538;6.736;2022-07-10T06:41:07;3.95;;;1.10;;
59930;SDS011;45790;51.538;6.736;2022-07-10T06:43:32;5.22;;;1.05;;
59930;SDS011;45790;51.538;6.736;2022-07-10T06:45:58;2.72;;;0.90;;
59930;SDS011;45790;51.538;6.736;2022-07-10T06:48:23;2.50;;;0.90;;
59930;SDS011;45790;51.538;6.736;2022-07-10T06:50:51;3.95;;;0.95;;
59930;SDS011;45790;51.538;6.736;2022-07-10T06:53:17;2.08;;;0.80;;
59930;SDS011;45790;51.538;6.736;2022-07-10T06:55:42;4.32;;;1.00;;
59930;SDS011;45790;51.538;6.736;2022-07-10T06:58:09;2.47;;;0.80;;
59930;SDS011;45790;51.538;6.736;2022-07-10T07:00:34;2.97;;;1.20;;
59930;SDS011;45790;51.538;6.736;2022-07-10T07:03:00;2.70;;;0.95;;
59930;SDS011;45790;51.538;6.736;2022-07-10T07:05:25;2.40;;;0.65;;
59930;SDS011;45790;51.538;6.736;2022-07-10T07:07:50;2.95;;;1.05;;
59930;SDS011;45790;51.538;6.736;2022-07-10T07:10:15;3.30;;;1.02;;
59930;SDS011;45790;51.538;6.736;2022-07-10T07:12:41;1.98;;;0.80;;
59930;SDS011;45790;51.538;6.736;2022-07-10T07:15:06;1.70;;;0.80;;
59930;SDS011;45790;51.538;6.736;2022-07-10T07:17:32;3.22;;;0.90;;
59930;SDS011;45790;51.538;6.736;2022-07-10T07:20:11;2.78;;;0.82;;
59930;SDS011;45790;51.538;6.736;2022-07-10T07:22:55;3.10;;;0.98;;
59930;SDS011;45790;51.538;6.736;2022-07-10T07:25:36;2.92;;;0.90;;
59930;SDS011;45790;51.538;6.736;2022-07-10T07:28:05;1.85;;;0.70;;
59930;SDS011;45790;51.538;6.736;2022-07-10T07:30:30;2.20;;;0.75;;
59930;SDS011;45790;51.538;6.736;2022-07-10T07:32:55;2.65;;;1.02;;
59930;SDS011;45790;51.538;6.736;2022-07-10T07:35:21;4.15;;;1.05;;
59930;SDS011;45790;51.538;6.736;2022-07-10T07:37:47;4.00;;;1.30;;
59930;SDS011;45790;51.538;6.736;2022-07-10T07:40:18;2.15;;;0.82;;
59930;SDS011;45790;51.538;6.736;2022-07-10T07:42:47;3.03;;;0.80;;
59930;SDS011;45790;51.538;6.736;2022-07-10T07:45:12;1.30;;;0.70;;
59930;SDS011;45790;51.538;6.736;2022-07-10T07:50:13;2.78;;;0.98;;
59930;SDS011;45790;51.538;6.736;2022-07-10T07:52:39;4.07;;;0.80;;
59930;SDS011;45790;51.538;6.736;2022-07-10T07:55:05;2.10;;;0.80;;
59930;SDS011;45790;51.538;6.736;2022-07-10T07:57:30;3.38;;;0.90;;
59930;SDS011;45790;51.538;6.736;2022-07-10T07:59:55;3.45;;;1.13;;
59930;SDS011;45790;51.538;6.736;2022-07-10T08:02:21;2.70;;;0.88;;
59930;SDS011;45790;51.538;6.736;2022-07-10T08:04:47;3.63;;;1.00;;
59930;SDS011;45790;51.538;6.736;2022-07-10T08:07:12;3.40;;;1.10;;
59930;SDS011;45790;51.538;6.736;2022-07-10T08:09:37;2.70;;;1.00;;
59930;SDS011;45790;51.538;6.736;2022-07-10T08:12:03;2.90;;;0.80;;
59930;SDS011;45790;51.538;6.736;2022-07-10T08:14:28;3.45;;;1.02;;
59930;SDS011;45790;51.538;6.736;2022-07-10T08:16:54;2.80;;;0.88;;
59930;SDS011;45790;51.538;6.736;2022-07-10T08:19:19;2.60;;;1.17;;
59930;SDS011;45790;51.538;6.736;2022-07-10T08:21:44;3.10;;;1.00;;
59930;SDS011;45790;51.538;6.736;2022-07-10T08:24:10;2.67;;;0.90;;
59930;SDS011;45790;51.538;6.736;2022-07-10T08:26:35;6.75;;;1.25;;
59930;SDS011;45790;51.538;6.736;2022-07-10T08:29:00;2.67;;;1.05;;
59930;SDS011;45790;51.538;6.736;2022-07-10T08:31:26;3.55;;;0.98;;
59930;SDS011;45790;51.538;6.736;2022-07-10T08:33:51;2.88;;;0.93;;
59930;SDS011;45790;51.538;6.736;2022-07-10T08:36:19;2.22;;;0.80;;
59930;SDS011;45790;51.538;6.736;2022-07-10T08:38:44;2.75;;;1.13;;
59930;SDS011;45790;51.538;6.736;2022-07-10T08:41:10;3.38;;;1.00;;
59930;SDS011;45790;51.538;6.736;2022-07-10T08:43:36;4.13;;;1.20;;
59930;SDS011;45790;51.538;6.736;2022-07-10T08:46:01;2.40;;;0.73;;
59930;SDS011;45790;51.538;6.736;2022-07-10T08:48:27;4.00;;;0.90;;
59930;SDS011;45790;51.538;6.736;2022-07-10T08:50:54;3.20;;;1.00;;
59930;SDS011;45790;51.538;6.736;2022-07-10T08:55:55;3.10;;;0.80;;
59930;SDS011;45790;51.538;6.736;2022-07-10T08:58:20;2.53;;;0.73;;
59930;SDS011;45790;51.538;6.736;2022-07-10T09:00:47;1.92;;;0.88;;
59930;SDS011;45790;51.538;6.736;2022-07-10T09:03:12;1.65;;;0.77;;
59930;SDS011;45790;51.538;6.736;2022-07-10T09:05:37;3.92;;;1.15;;
59930;SDS011;45790;51.538;6.736;2022-07-10T09:08:03;2.85;;;0.90;;
59930;SDS011;45790;51.538;6.736;2022-07-10T09:10:28;3.05;;;1.00;;
59930;SDS011;45790;51.538;6.736;2022-07-10T09:12:54;2.03;;;0.90;;
59930;SDS011;45790;51.538;6.736;2022-07-10T09:15:25;3.75;;;0.70;;
59930;SDS011;45790;51.538;6.736;2022-07-10T09:17:52;4.38;;;1.00;;
59930;SDS011;45790;51.538;6.736;2022-07-10T09:22:58;3.42;;;0.90;;
59930;SDS011;45790;51.538;6.736;2022-07-10T09:25:31;3.33;;;0.73;;
59930;SDS011;45790;51.538;6.736;2022-07-10T09:27:58;2.50;;;0.93;;
59930;SDS011;45790;51.538;6.736;2022-07-10T09:30:57;2.42;;;0.90;;
59930;SDS011;45790;51.538;6.736;2022-07-10T09:41:15;4.78;;;1.10;;
59930;SDS011;45790;51.538;6.736;2022-07-10T09:43:49;4.13;;;1.20;;
59930;SDS011;45790;51.538;6.736;2022-07-10T09:46:15;4.43;;;1.35;;
59930;SDS011;45790;51.538;6.736;2022-07-10T09:48:41;3.30;;;1.13;;
59930;SDS011;45790;51.538;6.736;2022-07-10T09:51:07;2.90;;;1.15;;
59930;SDS011;45790;51.538;6.736;2022-07-10T09:53:35;3.72;;;1.02;;
59930;SDS011;45790;51.538;6.736;2022-07-10T09:56:03;5.13;;;1.40;;
59930;SDS011;45790;51.538;6.736;2022-07-10T09:58:32;3.35;;;1.30;;
59930;SDS011;45790;51.538;6.736;2022-07-10T10:01:00;4.63;;;1.40;;
59930;SDS011;45790;51.538;6.736;2022-07-10T10:03:27;4.70;;;1.50;;
59930;SDS011;45790;51.538;6.736;2022-07-10T10:06:01;3.20;;;1.40;;
59930;SDS011;45790;51.538;6.736;2022-07-10T10:08:28;2.47;;;1.10;;
59930;SDS011;45790;51.538;6.736;2022-07-10T10:10:56;3.78;;;1.30;;
59930;SDS011;45790;51.538;6.736;2022-07-10T10:13:23;3.72;;;1.38;;
59930;SDS011;45790;51.538;6.736;2022-07-10T10:15:52;3.13;;;1.13;;
59930;SDS011;45790;51.538;6.736;2022-07-10T10:18:24;2.83;;;1.27;;
59930;SDS011;45790;51.538;6.736;2022-07-10T10:20:51;3.47;;;1.40;;
59930;SDS011;45790;51.538;6.736;2022-07-10T10:25:49;2.78;;;1.38;;
59930;SDS011;45790;51.538;6.736;2022-07-10T10:28:16;2.90;;;1.33;;
59930;SDS011;45790;51.538;6.736;2022-07-10T10:30:43;4.53;;;1.30;;
59930;SDS011;45790;51.538;6.736;2022-07-10T10:35:56;3.22;;;1.50;;
59930;SDS011;45790;51.538;6.736;2022-07-10T10:38:21;3.17;;;1.50;;
59930;SDS011;45790;51.538;6.736;2022-07-10T10:40:47;4.00;;;1.60;;
59930;SDS011;45790;51.538;6.736;2022-07-10T10:43:19;3.40;;;1.15;;
59930;SDS011;45790;51.538;6.736;2022-07-10T10:45:46;2.67;;;1.20;;
59930;SDS011;45790;51.538;6.736;2022-07-10T10:48:13;3.55;;;1.30;;
59930;SDS011;45790;51.538;6.736;2022-07-10T10:55:41;2.90;;;1.20;;
59930;SDS011;45790;51.538;6.736;2022-07-10T10:58:18;2.42;;;1.00;;
59930;SDS011;45790;51.538;6.736;2022-07-10T11:00:44;2.47;;;1.05;;
59930;SDS011;45790;51.538;6.736;2022-07-10T11:03:13;1.70;;;0.88;;
59930;SDS011;45790;51.538;6.736;2022-07-10T11:05:40;2.65;;;0.98;;
59930;SDS011;45790;51.538;6.736;2022-07-10T11:08:07;2.95;;;1.08;;
59930;SDS011;45790;51.538;6.736;2022-07-10T11:13:11;3.20;;;1.15;;
59930;SDS011;45790;51.538;6.736;2022-07-10T11:15:40;2.67;;;0.90;;
59930;SDS011;45790;51.538;6.736;2022-07-10T11:18:11;1.67;;;0.80;;
59930;SDS011;45790;51.538;6.736;2022-07-10T11:26:10;2.38;;;0.80;;
59930;SDS011;45790;51.538;6.736;2022-07-10T11:31:22;1.63;;;0.73;;
59930;SDS011;45790;51.538;6.736;2022-07-10T11:33:48;1.77;;;0.82;;
59930;SDS011;45790;51.538;6.736;2022-07-10T11:36:26;4.18;;;0.90;;
59930;SDS011;45790;51.538;6.736;2022-07-10T11:38:58;1.50;;;0.70;;
59930;SDS011;45790;51.538;6.736;2022-07-10T11:41:24;2.05;;;0.90;;
59930;SDS011;45790;51.538;6.736;2022-07-10T11:43:53;0.82;;;0.63;;
59930;SDS011;45790;51.538;6.736;2022-07-10T11:46:20;1.52;;;0.70;;
59930;SDS011;45790;51.538;6.736;2022-07-10T11:48:48;1.80;;;0.75;;
59930;SDS011;45790;51.538;6.736;2022-07-10T11:51:28;2.17;;;0.90;;
59930;SDS011;45790;51.538;6.736;2022-07-10T11:53:55;1.48;;;0.70;;
59930;SDS011;45790;51.538;6.736;2022-07-10T11:59:09;2.90;;;0.73;;
59930;SDS011;45790;51.538;6.736;2022-07-10T12:01:48;1.73;;;0.90;;
59930;SDS011;45790;51.538;6.736;2022-07-10T12:04:15;1.45;;;0.75;;
59930;SDS011;45790;51.538;6.736;2022-07-10T12:06:42;2.25;;;0.90;;
59930;SDS011;45790;51.538;6.736;2022-07-10T12:11:35;1.95;;;0.70;;
59930;SDS011;45790;51.538;6.736;2022-07-10T12:19:19;1.48;;;0.68;;
59930;SDS011;45790;51.538;6.736;2022-07-10T12:21:58;3.13;;;0.90;;
59930;SDS011;45790;51.538;6.736;2022-07-10T12:24:24;2.33;;;0.80;;
59930;SDS011;45790;51.538;6.736;2022-07-10T12:26:50;3.08;;;0.90;;
59930;SDS011;45790;51.538;6.736;2022-07-10T12:29:27;4.93;;;1.05;;
59930;SDS011;45790;51.538;6.736;2022-07-10T12:31:59;1.45;;;0.75;;
59930;SDS011;45790;51.538;6.736;2022-07-10T12:34:39;3.08;;;0.90;;
59930;SDS011;45790;51.538;6.736;2022-07-10T12:37:09;1.67;;;0.73;;
59930;SDS011;45790;51.538;6.736;2022-07-10T12:39:36;1.40;;;0.80;;
59930;SDS011;45790;51.538;6.736;2022-07-10T12:42:03;1.88;;;0.90;;
59930;SDS011;45790;51.538;6.736;2022-07-10T12:44:30;1.38;;;0.75;;
59930;SDS011;45790;51.538;6.736;2022-07-10T12:55:05;2.00;;;0.70;;
59930;SDS011;45790;51.538;6.736;2022-07-10T13:02:58;1.80;;;0.80;;
59930;SDS011;45790;51.538;6.736;2022-07-10T13:05:43;2.08;;;0.80;;
59930;SDS011;45790;51.538;6.736;2022-07-10T13:10:42;1.60;;;0.75;;
59930;SDS011;45790;51.538;6.736;2022-07-10T13:13:08;1.95;;;0.73;;
59930;SDS011;45790;51.538;6.736;2022-07-10T13:15:34;1.25;;;0.80;;
59930;SDS011;45790;51.538;6.736;2022-07-10T13:18:04;1.08;;;0.70;;
59930;SDS011;45790;51.538;6.736;2022-07-10T13:20:30;1.67;;;0.73;;
59930;SDS011;45790;51.538;6.736;2022-07-10T13:22:56;2.72;;;0.80;;
59930;SDS011;45790;51.538;6.736;2022-07-10T13:25:21;2.28;;;0.70;;
59930;SDS011;45790;51.538;6.736;2022-07-10T13:27:46;2.63;;;1.00;;
59930;SDS011;45790;51.538;6.736;2022-07-10T13:30:12;3.05;;;0.73;;
59930;SDS011;45790;51.538;6.736;2022-07-10T13:32:37;1.75;;;0.70;;
59930;SDS011;45790;51.538;6.736;2022-07-10T13:35:04;3.45;;;0.90;;
59930;SDS011;45790;51.538;6.736;2022-07-10T13:37:30;3.03;;;0.75;;
59930;SDS011;45790;51.538;6.736;2022-07-10T13:39:56;1.80;;;0.90;;
59930;SDS011;45790;51.538;6.736;2022-07-10T13:42:21;2.33;;;0.85;;
59930;SDS011;45790;51.538;6.736;2022-07-10T13:44:47;1.52;;;0.70;;
59930;SDS011;45790;51.538;6.736;2022-07-10T13:47:12;2.08;;;0.70;;
59930;SDS011;45790;51.538;6.736;2022-07-10T13:49:37;2.47;;;0.70;;
59930;SDS011;45790;51.538;6.736;2022-07-10T13:52:03;1.83;;;0.88;;
59930;SDS011;45790;51.538;6.736;2022-07-10T13:54:28;1.60;;;0.70;;
59930;SDS011;45790;51.538;6.736;2022-07-10T13:56:54;1.65;;;0.70;;
59930;SDS011;45790;51.538;6.736;2022-07-10T13:59:19;2.08;;;0.82;;
59930;SDS011;45790;51.538;6.736;2022-07-10T14:01:44;1.75;;;0.70;;
59930;SDS011;45790;51.538;6.736;2022-07-10T14:04:09;2.42;;;0.90;;
59930;SDS011;45790;51.538;6.736;2022-07-10T14:06:35;2.70;;;0.70;;
59930;SDS011;45790;51.538;6.736;2022-07-10T14:09:00;2.30;;;0.70;;
59930;SDS011;45790;51.538;6.736;2022-07-10T14:11:26;1.73;;;0.80;;
59930;SDS011;45790;51.538;6.736;2022-07-10T14:13:51;1.63;;;0.75;;
59930;SDS011;45790;51.538;6.736;2022-07-10T14:16:16;2.47;;;0.85;;
59930;SDS011;45790;51.538;6.736;2022-07-10T14:18:42;1.90;;;0.88;;
59930;SDS011;45790;51.538;6.736;2022-07-10T14:21:09;1.83;;;0.80;;
59930;SDS011;45790;51.538;6.736;2022-07-10T14:23:36;1.70;;;0.65;;
59930;SDS011;45790;51.538;6.736;2022-07-10T14:26:03;3.13;;;0.98;;
59930;SDS011;45790;51.538;6.736;2022-07-10T14:28:30;2.70;;;0.80;;
59930;SDS011;45790;51.538;6.736;2022-07-10T14:30:56;1.92;;;0.93;;
59930;SDS011;45790;51.538;6.736;2022-07-10T14:33:24;4.45;;;1.13;;
59930;SDS011;45790;51.538;6.736;2022-07-10T14:35:49;3.30;;;1.17;;
59930;SDS011;45790;51.538;6.736;2022-07-10T14:38:14;2.95;;;1.50;;
59930;SDS011;45790;51.538;6.736;2022-07-10T14:40:40;3.50;;;2.00;;
59930;SDS011;45790;51.538;6.736;2022-07-10T14:43:05;3.17;;;1.33;;
59930;SDS011;45790;51.538;6.736;2022-07-10T14:45:30;3.20;;;1.10;;
59930;SDS011;45790;51.538;6.736;2022-07-10T14:47:56;3.28;;;1.02;;
59930;SDS011;45790;51.538;6.736;2022-07-10T14:50:30;2.38;;;1.00;;
59930;SDS011;45790;51.538;6.736;2022-07-10T14:52:56;3.40;;;1.15;;
59930;SDS011;45790;51.538;6.736;2022-07-10T14:55:27;3.42;;;1.13;;
59930;SDS011;45790;51.538;6.736;2022-07-10T14:58:19;2.42;;;1.05;;
59930;SDS011;45790;51.538;6.736;2022-07-10T15:00:49;3.65;;;1.17;;
59930;SDS011;45790;51.538;6.736;2022-07-10T15:03:21;6.30;;;1.30;;
59930;SDS011;45790;51.538;6.736;2022-07-10T15:05:56;3.53;;;1.30;;
59930;SDS011;45790;51.538;6.736;2022-07-10T15:08:23;2.83;;;1.33;;
59930;SDS011;45790;51.538;6.736;2022-07-10T15:10:52;5.13;;;2.05;;
59930;SDS011;45790;51.538;6.736;2022-07-10T15:13:20;3.38;;;1.52;;
59930;SDS011;45790;51.538;6.736;2022-07-10T15:15:47;4.07;;;1.27;;
59930;SDS011;45790;51.538;6.736;2022-07-10T15:19:05;3.83;;;1.17;;
59930;SDS011;45790;51.538;6.736;2022-07-10T15:21:33;4.70;;;1.60;;
59930;SDS011;45790;51.538;6.736;2022-07-10T15:24:15;3.50;;;1.40;;
59930;SDS011;45790;51.538;6.736;2022-07-10T15:26:42;2.78;;;1.20;;
59930;SDS011;45790;51.538;6.736;2022-07-10T15:29:09;3.65;;;1.55;;
59930;SDS011;45790;51.538;6.736;2022-07-10T15:31:35;3.92;;;1.30;;
59930;SDS011;45790;51.538;6.736;2022-07-10T15:34:06;4.25;;;1.50;;
59930;SDS011;45790;51.538;6.736;2022-07-10T15:36:33;4.30;;;1.75;;
59930;SDS011;45790;51.538;6.736;2022-07-10T15:39:01;3.38;;;1.40;;
59930;SDS011;45790;51.538;6.736;2022-07-10T15:41:28;2.95;;;1.23;;
59930;SDS011;45790;51.538;6.736;2022-07-10T15:43:55;2.10;;;1.10;;
59930;SDS011;45790;51.538;6.736;2022-07-10T15:46:23;2.72;;;1.10;;
59930;SDS011;45790;51.538;6.736;2022-07-10T15:48:52;1.65;;;0.90;;